createdAt,value
2018-05-10T00:01:23.175Z,58.90
2018-05-10T00:03:50.610Z,59.10
2018-05-10T00:06:18.045Z,59.20
2018-05-10T00:08:45.510Z,59.30
2018-05-10T00:11:12.973Z,59.10
2018-05-10T00:13:40.427Z,59.30
2018-05-10T00:16:07.896Z,59.30
2018-05-10T00:18:35.357Z,59.30
2018-05-10T00:21:02.814Z,59.30
2018-05-10T00:23:30.251Z,59.80
2018-05-10T00:25:57.699Z,60.00
2018-05-10T00:28:25.146Z,59.70
2018-05-10T00:30:52.629Z,59.80
2018-05-10T00:33:20.077Z,59.90
2018-05-10T00:35:47.526Z,59.80
2018-05-10T00:38:14.977Z,59.80
2018-05-10T00:40:42.462Z,60.00
2018-05-10T00:43:09.905Z,60.30
2018-05-10T00:45:37.370Z,60.00
2018-05-10T00:48:04.821Z,60.10
2018-05-10T00:50:32.284Z,60.30
2018-05-10T00:52:59.735Z,60.70
2018-05-10T00:55:27.201Z,60.70
2018-05-10T00:57:54.653Z,60.80
2018-05-10T01:00:22.122Z,61.20
2018-05-10T01:02:49.651Z,60.90
2018-05-10T01:05:17.082Z,61.20
2018-05-10T01:07:45.304Z,61.50
2018-05-10T01:10:12.763Z,61.40
2018-05-10T01:12:40.225Z,61.30
2018-05-10T01:15:07.677Z,61.40
2018-05-10T01:17:35.127Z,61.40
2018-05-10T01:20:02.585Z,62.00
2018-05-10T01:22:30.147Z,61.10
2018-05-10T01:24:57.602Z,61.30
2018-05-10T01:27:25.242Z,61.40
2018-05-10T01:29:52.915Z,62.00
2018-05-10T01:32:20.382Z,62.30
2018-05-10T01:34:59.836Z,62.50
2018-05-10T01:37:27.694Z,62.50
2018-05-10T01:39:55.149Z,62.50
2018-05-10T01:42:22.616Z,62.30
2018-05-10T01:44:50.351Z,62.20
2018-05-10T01:47:17.802Z,62.00
2018-05-10T01:49:45.255Z,62.30
2018-05-10T01:52:12.698Z,62.10
2018-05-10T01:54:40.160Z,62.20
2018-05-10T01:57:07.603Z,62.50
2018-05-10T01:59:35.829Z,62.40
2018-05-10T02:02:03.272Z,62.40
2018-05-10T02:04:30.716Z,62.50
2018-05-10T02:06:58.177Z,62.50
2018-05-10T02:09:25.613Z,62.40
2018-05-10T02:11:53.825Z,62.00
2018-05-10T02:14:21.307Z,61.90
2018-05-10T02:16:48.755Z,61.80
2018-05-10T02:19:16.200Z,61.80
2018-05-10T02:21:43.670Z,61.80
2018-05-10T02:24:11.146Z,61.80
2018-05-10T02:26:38.581Z,61.50
2018-05-10T02:29:06.017Z,60.90
2018-05-10T02:31:33.466Z,61.30
2018-05-10T02:34:00.929Z,61.30
2018-05-10T02:36:28.506Z,61.30
2018-05-10T02:38:55.900Z,61.40
2018-05-10T02:41:24.126Z,61.70
2018-05-10T02:43:51.581Z,61.70
2018-05-10T02:46:19.029Z,61.90
2018-05-10T02:48:46.485Z,62.30
2018-05-10T02:51:13.943Z,62.80
2018-05-10T02:53:41.409Z,63.60
2018-05-10T02:56:08.867Z,64.00
2018-05-10T02:58:36.325Z,63.80
2018-05-10T03:01:03.770Z,64.60
2018-05-10T03:03:31.243Z,65.20
2018-05-10T03:05:58.725Z,65.10
2018-05-10T03:08:26.178Z,66.00
2018-05-10T03:10:53.648Z,65.70
2018-05-10T03:13:21.101Z,66.80
2018-05-10T03:15:48.545Z,66.20
2018-05-10T03:18:15.989Z,66.50
2018-05-10T03:20:43.476Z,66.80
2018-05-10T03:23:11.701Z,67.10
2018-05-10T03:25:39.170Z,67.00
2018-05-10T03:28:06.637Z,67.20
2018-05-10T03:30:34.136Z,67.20
2018-05-10T03:33:02.358Z,67.80
2018-05-10T03:35:29.813Z,67.80
2018-05-10T03:37:57.293Z,68.30
2018-05-10T03:40:24.747Z,68.30
2018-05-10T03:42:52.198Z,68.30
2018-05-10T03:45:19.749Z,68.80
2018-05-10T03:47:47.189Z,69.00
2018-05-10T03:50:14.664Z,69.10
2018-05-10T03:52:42.119Z,69.00
2018-05-10T03:55:09.586Z,69.50
2018-05-10T03:57:37.054Z,69.60
2018-05-10T04:00:04.507Z,69.60
2018-05-10T04:05:45.751Z,69.10
2018-05-10T04:08:25.159Z,69.40
2018-05-10T04:11:04.844Z,69.70
2018-05-10T04:13:32.268Z,70.00
2018-05-10T04:16:00.501Z,70.30
2018-05-10T04:18:27.957Z,70.20
2018-05-10T04:20:56.178Z,71.10
2018-05-10T04:23:24.395Z,71.50
2018-05-10T04:25:51.849Z,71.50
2018-05-10T04:28:19.307Z,71.40
2018-05-10T04:30:46.766Z,71.60
2018-05-10T04:33:14.236Z,71.40
2018-05-10T04:35:41.756Z,71.30
2018-05-10T04:38:09.173Z,71.50
2018-05-10T04:40:36.602Z,71.50
2018-05-10T04:43:04.831Z,70.80
2018-05-10T04:45:32.275Z,70.80
2018-05-10T04:48:00.511Z,70.70
2018-05-10T04:50:27.966Z,70.70
2018-05-10T04:52:56.186Z,70.10
2018-05-10T04:55:23.633Z,70.00
2018-05-10T04:57:51.170Z,69.60
2018-05-10T05:00:18.637Z,70.00
2018-05-10T05:02:46.090Z,70.00
2018-05-10T05:05:13.553Z,69.80
2018-05-10T05:07:41.001Z,69.90
2018-05-10T05:10:08.448Z,69.80
2018-05-10T05:12:35.895Z,69.50
2018-05-10T05:15:03.343Z,69.20
2018-05-10T05:17:30.799Z,69.40
2018-05-10T05:19:58.259Z,70.40
2018-05-10T05:22:25.711Z,69.90
2018-05-10T05:24:53.198Z,69.70
2018-05-10T05:27:20.669Z,70.00
2018-05-10T05:29:48.198Z,70.10
2018-05-10T05:32:15.648Z,70.30
2018-05-10T05:34:43.861Z,70.20
2018-05-10T05:37:11.354Z,70.10
2018-05-10T05:39:38.800Z,70.40
2018-05-10T05:42:06.259Z,70.10
2018-05-10T05:44:33.708Z,70.00
2018-05-10T05:47:02.025Z,70.30
2018-05-10T05:49:29.484Z,70.20
2018-05-10T05:51:56.982Z,71.60
2018-05-10T05:54:24.451Z,71.80
2018-05-10T05:56:51.962Z,72.80
2018-05-10T05:59:19.422Z,73.50
2018-05-10T06:01:47.651Z,75.50
2018-05-10T06:04:15.129Z,75.50
2018-05-10T06:06:42.610Z,75.50
2018-05-10T06:09:10.068Z,75.30
2018-05-10T06:11:37.569Z,75.90
2018-05-10T06:14:06.514Z,76.40
2018-05-10T06:16:33.972Z,76.40
2018-05-10T06:19:01.429Z,76.30
2018-05-10T06:21:28.891Z,76.10
2018-05-10T06:23:56.429Z,75.90
2018-05-10T06:26:23.870Z,75.30
2018-05-10T06:28:51.322Z,75.80
2018-05-10T06:31:18.802Z,75.80
2018-05-10T06:33:46.286Z,74.80
2018-05-10T06:36:13.751Z,73.20
2018-05-10T06:38:41.202Z,73.80
2018-05-10T06:41:08.695Z,73.10
2018-05-10T06:43:36.936Z,72.70
2018-05-10T06:46:05.215Z,72.60
2018-05-10T06:48:32.671Z,71.60
2018-05-10T06:51:00.134Z,72.10
2018-05-10T06:53:27.584Z,71.50
2018-05-10T06:55:55.027Z,69.80
2018-05-10T06:58:22.515Z,70.40
2018-05-10T07:00:49.955Z,71.40
2018-05-10T07:03:17.448Z,71.10
2018-05-10T07:05:44.882Z,70.90
2018-05-10T07:08:13.110Z,70.40
2018-05-10T07:10:40.571Z,70.40
2018-05-10T07:13:08.069Z,70.20
2018-05-10T07:15:35.518Z,69.70
2018-05-10T07:18:02.967Z,70.30
2018-05-10T07:20:30.417Z,70.00
2018-05-10T07:22:57.899Z,69.50
2018-05-10T07:25:25.473Z,69.20
2018-05-10T07:27:53.581Z,69.30
2018-05-10T07:30:21.038Z,69.20
2018-05-10T07:32:48.503Z,68.90
2018-05-10T07:35:15.966Z,68.90
2018-05-10T07:37:43.483Z,67.80
2018-05-10T07:40:10.926Z,67.30
2018-05-10T07:42:39.156Z,66.60
2018-05-10T07:45:06.607Z,66.60
2018-05-10T07:47:34.064Z,66.40
2018-05-10T07:50:01.583Z,66.30
2018-05-10T07:52:29.789Z,66.50
2018-05-10T07:54:57.246Z,66.40
2018-05-10T07:57:24.798Z,66.60
2018-05-10T07:59:52.235Z,65.90
2018-05-10T08:02:19.784Z,65.50
2018-05-10T08:04:47.194Z,64.80
2018-05-10T08:07:14.654Z,64.40
2018-05-10T08:09:42.110Z,64.80
2018-05-10T08:12:09.582Z,65.30
2018-05-10T08:14:37.033Z,65.30
2018-05-10T08:17:04.568Z,64.30
2018-05-10T08:19:32.781Z,64.50
2018-05-10T08:22:01.012Z,64.20
2018-05-10T08:24:28.451Z,64.20
2018-05-10T08:26:55.899Z,64.50
2018-05-10T08:29:23.384Z,64.40
2018-05-10T08:31:50.850Z,63.80
2018-05-10T08:34:18.325Z,63.30
2018-05-10T08:36:45.830Z,62.80
2018-05-10T08:39:13.285Z,63.20
2018-05-10T08:41:40.713Z,63.10
2018-05-10T08:44:08.975Z,62.20
2018-05-10T08:46:36.426Z,62.20
2018-05-10T08:49:03.887Z,62.10
2018-05-10T08:51:31.429Z,62.00
2018-05-10T08:53:59.594Z,61.20
2018-05-10T08:56:27.053Z,61.00
2018-05-10T08:58:54.552Z,60.30
2018-05-10T09:01:21.997Z,60.20
2018-05-10T09:03:49.454Z,59.60
2018-05-10T09:06:16.939Z,58.90
2018-05-10T09:08:44.383Z,57.70
2018-05-10T09:11:12.597Z,55.70
2018-05-10T09:13:40.070Z,55.70
2018-05-10T09:16:07.522Z,54.70
2018-05-10T09:18:34.967Z,54.20
2018-05-10T09:21:02.424Z,53.70
2018-05-10T09:23:29.894Z,54.20
2018-05-10T09:25:57.371Z,54.90
2018-05-10T09:28:24.901Z,55.90
2018-05-10T09:30:52.343Z,57.10
2018-05-10T09:33:19.810Z,56.40
2018-05-10T09:35:47.271Z,57.10
2018-05-10T09:38:14.727Z,57.80
2018-05-10T09:40:42.194Z,57.80
2018-05-10T09:43:10.412Z,58.20
2018-05-10T09:45:38.639Z,58.50
2018-05-10T09:48:06.111Z,58.50
2018-05-10T09:50:33.597Z,58.90
2018-05-10T09:53:01.830Z,62.00
2018-05-10T09:55:29.291Z,61.90
2018-05-10T09:57:56.716Z,62.00
2018-05-10T10:00:29.151Z,61.70
2018-05-10T10:02:56.636Z,59.50
2018-05-10T10:05:24.086Z,60.80
2018-05-10T10:07:52.300Z,62.10
2018-05-10T10:10:19.756Z,62.00
2018-05-10T10:12:47.195Z,62.00
2018-05-10T10:15:14.751Z,62.30
2018-05-10T10:17:42.274Z,62.60
2018-05-10T10:20:10.460Z,64.10
2018-05-10T10:22:37.917Z,64.00
2018-05-10T10:25:06.139Z,65.20
2018-05-10T10:27:33.588Z,65.00
2018-05-10T10:30:01.053Z,66.00
2018-05-10T10:32:28.539Z,65.50
2018-05-10T10:34:55.968Z,66.30
2018-05-10T10:37:23.414Z,66.80
2018-05-10T10:39:50.892Z,67.00
2018-05-10T10:42:18.361Z,67.50
2018-05-10T10:44:47.325Z,68.50
2018-05-10T10:47:14.832Z,68.50
2018-05-10T10:49:43.075Z,69.20
2018-05-10T10:52:10.525Z,68.50
2018-05-10T10:54:37.974Z,68.80
2018-05-10T10:57:05.431Z,68.50
2018-05-10T10:59:32.876Z,68.50
2018-05-10T11:02:00.379Z,68.70
2018-05-10T11:04:27.799Z,67.80
2018-05-10T11:06:55.258Z,69.20
2018-05-10T11:09:22.720Z,69.80
2018-05-10T11:11:50.178Z,69.90
2018-05-10T11:14:17.739Z,68.90
2018-05-10T11:16:45.198Z,69.90
2018-05-10T11:19:12.642Z,70.50
2018-05-10T11:21:40.193Z,71.00
2018-05-10T11:24:07.637Z,71.50
2018-05-10T11:26:35.115Z,71.10
2018-05-10T11:29:02.572Z,71.90
2018-05-10T11:31:30.043Z,71.30
2018-05-10T11:33:57.504Z,69.30
2018-05-10T11:36:24.962Z,69.20
2018-05-10T11:38:52.423Z,70.00
2018-05-10T11:41:20.654Z,68.60
2018-05-10T11:43:48.112Z,68.50
2018-05-10T11:46:15.569Z,68.80
2018-05-10T11:48:43.137Z,68.70
2018-05-10T11:51:10.519Z,68.60
2018-05-10T11:53:37.961Z,68.30
2018-05-10T11:56:05.420Z,67.80
2018-05-10T11:58:32.914Z,68.20
2018-05-10T12:01:00.370Z,67.80
2018-05-10T12:03:27.827Z,67.60
2018-05-10T12:05:55.290Z,67.50
2018-05-10T12:08:22.744Z,67.90
2018-05-10T12:10:50.194Z,68.10
2018-05-10T12:13:17.646Z,68.80
2018-05-10T12:15:45.111Z,70.10
2018-05-10T12:18:12.556Z,69.50
2018-05-10T12:20:40.021Z,69.60
2018-05-10T12:23:07.467Z,67.30
2018-05-10T12:25:35.064Z,65.70
2018-05-10T12:28:02.362Z,66.00
2018-05-10T12:30:29.862Z,61.40
2018-05-10T12:32:57.298Z,61.40
2018-05-10T12:35:24.745Z,62.40
2018-05-10T12:37:52.222Z,60.70
2018-05-10T12:40:19.739Z,60.60
2018-05-10T12:42:47.212Z,61.90
2018-05-10T12:45:14.665Z,62.40
2018-05-10T12:47:42.122Z,63.00
2018-05-10T12:50:09.583Z,63.60
2018-05-10T12:52:37.819Z,63.30
2018-05-10T12:55:05.338Z,63.20
2018-05-10T12:57:32.793Z,63.20
2018-05-10T13:00:00.244Z,62.80
2018-05-10T13:02:27.702Z,62.30
2018-05-10T13:04:55.157Z,62.40
2018-05-10T13:07:22.617Z,62.50
2018-05-10T13:09:50.078Z,63.50
2018-05-10T13:12:17.534Z,63.40
2018-05-10T13:14:45.000Z,63.40
2018-05-10T13:17:12.466Z,63.50
2018-05-10T13:19:40.689Z,63.80
2018-05-10T13:22:08.921Z,63.80
2018-05-10T13:24:37.177Z,64.30
2018-05-10T13:27:04.629Z,64.20
2018-05-10T13:29:32.083Z,65.30
2018-05-10T13:31:59.614Z,65.90
2018-05-10T13:34:27.091Z,66.10
2018-05-10T13:36:54.574Z,65.40
2018-05-10T13:39:22.037Z,67.10
2018-05-10T13:41:50.254Z,66.30
2018-05-10T13:44:17.693Z,66.20
2018-05-10T13:46:45.166Z,66.80
2018-05-10T13:49:12.625Z,66.50
2018-05-10T13:51:40.107Z,66.40
2018-05-10T13:54:07.561Z,65.80
2018-05-10T13:56:35.101Z,66.10
2018-05-10T13:59:02.615Z,66.40
2018-05-10T14:01:30.053Z,66.50
2018-05-10T14:03:57.487Z,66.60
2018-05-10T14:06:24.961Z,66.90
2018-05-10T14:08:52.405Z,67.20
2018-05-10T14:11:20.620Z,67.50
2018-05-10T14:13:48.853Z,67.00
2018-05-10T14:16:16.333Z,67.00
2018-05-10T14:18:43.841Z,67.10
2018-05-10T14:21:11.301Z,66.60
2018-05-10T14:23:38.758Z,67.10
2018-05-10T14:26:06.201Z,66.90
2018-05-10T14:28:33.677Z,66.90
2018-05-10T14:31:01.124Z,66.50
2018-05-10T14:33:28.590Z,66.40
2018-05-10T14:35:56.075Z,65.40
2018-05-10T14:38:23.609Z,65.80
2018-05-10T14:40:51.061Z,65.90
2018-05-10T14:43:18.545Z,65.60
2018-05-10T14:45:45.997Z,65.80
2018-05-10T14:48:13.473Z,65.40
2018-05-10T14:50:40.917Z,64.90
2018-05-10T14:53:08.373Z,65.10
2018-05-10T14:55:35.822Z,65.60
2018-05-10T14:58:03.284Z,66.50
2018-05-10T15:00:30.746Z,67.20
2018-05-10T15:02:58.222Z,67.10
2018-05-10T15:05:26.479Z,67.20
2018-05-10T15:07:53.957Z,67.10
2018-05-10T15:10:21.390Z,67.20
2018-05-10T15:12:48.854Z,67.20
2018-05-10T15:15:16.330Z,67.10
2018-05-10T15:17:44.556Z,67.60
2018-05-10T15:20:12.062Z,67.50
2018-05-10T15:22:39.513Z,67.70
2018-05-10T15:25:06.981Z,67.30
2018-05-10T15:27:34.430Z,66.30
2018-05-10T15:30:02.662Z,65.70
2018-05-10T15:32:30.156Z,65.70
2018-05-10T15:34:57.665Z,65.80
2018-05-10T15:37:25.227Z,66.00
2018-05-10T15:39:52.656Z,65.60
2018-05-10T15:42:20.105Z,65.80
2018-05-10T15:44:48.327Z,65.60
2018-05-10T15:47:15.822Z,65.50
2018-05-10T15:49:43.361Z,65.30
2018-05-10T15:52:10.734Z,64.90
2018-05-10T15:54:38.197Z,65.30
2018-05-10T15:57:05.659Z,63.90
2018-05-10T15:59:33.911Z,64.00
2018-05-10T16:02:01.406Z,63.90
2018-05-10T16:04:28.918Z,63.10
2018-05-10T16:06:56.366Z,63.20
2018-05-10T16:09:23.843Z,63.20
2018-05-10T16:11:51.299Z,62.90
2018-05-10T16:14:18.776Z,63.40
2018-05-10T16:16:46.226Z,63.40
2018-05-10T16:19:13.685Z,64.10
2018-05-10T16:21:41.138Z,62.90
2018-05-10T16:24:08.629Z,63.50
2018-05-10T16:26:36.086Z,62.70
2018-05-10T16:29:03.541Z,62.50
2018-05-10T16:31:30.989Z,62.30
2018-05-10T16:33:58.474Z,62.40
2018-05-10T16:36:25.907Z,62.40
2018-05-10T16:38:53.358Z,62.70
2018-05-10T16:41:21.581Z,63.50
2018-05-10T16:43:49.053Z,63.50
2018-05-10T16:46:16.506Z,63.70
2018-05-10T16:48:43.973Z,64.50
2018-05-10T16:51:11.465Z,64.00
2018-05-10T16:53:39.701Z,64.00
2018-05-10T16:56:07.911Z,63.90
2018-05-10T16:58:35.370Z,64.00
2018-05-10T17:01:02.834Z,64.10
2018-05-10T17:03:30.282Z,64.20
2018-05-10T17:05:57.734Z,64.10
2018-05-10T17:08:25.959Z,64.30
2018-05-10T17:10:53.413Z,64.30
2018-05-10T17:13:20.916Z,64.30
2018-05-10T17:15:48.370Z,64.20
2018-05-10T17:18:15.815Z,64.20
2018-05-10T17:20:43.274Z,64.10
2018-05-10T17:23:10.727Z,64.10
2018-05-10T17:25:38.181Z,64.20
2018-05-10T17:28:05.635Z,64.80
2018-05-10T17:30:33.085Z,65.00
2018-05-10T17:33:00.562Z,64.70
2018-05-10T17:35:28.006Z,65.00
2018-05-10T17:37:55.460Z,66.00
2018-05-10T17:40:22.938Z,67.30
2018-05-10T17:42:50.393Z,68.50
2018-05-10T17:45:17.841Z,70.10
2018-05-10T17:47:45.287Z,70.90
2018-05-10T17:50:12.740Z,71.60
2018-05-10T17:52:40.197Z,72.80
2018-05-10T17:55:07.681Z,73.50
2018-05-10T17:57:35.907Z,76.20
2018-05-10T18:00:03.383Z,76.10
2018-05-10T18:02:30.842Z,77.10
2018-05-10T18:04:58.370Z,76.90
2018-05-10T18:07:25.842Z,77.50
2018-05-10T18:09:53.854Z,78.10
2018-05-10T18:12:22.077Z,79.00
2018-05-10T18:14:49.534Z,79.00
2018-05-10T18:17:16.985Z,79.00
2018-05-10T18:19:44.444Z,79.00
2018-05-10T18:22:11.964Z,78.20
2018-05-10T18:24:40.178Z,76.90
2018-05-10T18:27:07.609Z,77.40
2018-05-10T18:29:35.253Z,76.70
2018-05-10T18:32:03.473Z,76.20
2018-05-10T18:34:30.942Z,76.10
2018-05-10T18:36:59.162Z,75.70
2018-05-10T18:39:27.399Z,75.70
2018-05-10T18:41:54.857Z,75.70
2018-05-10T18:44:22.309Z,75.30
2018-05-10T18:46:49.761Z,74.70
2018-05-10T18:49:17.219Z,74.40
2018-05-10T18:51:44.668Z,74.90
2018-05-10T18:54:12.114Z,73.70
2018-05-10T18:56:39.871Z,73.70
2018-05-10T18:59:07.320Z,73.60
2018-05-10T19:01:34.903Z,72.70
2018-05-10T19:04:02.270Z,72.40
2018-05-10T19:06:29.741Z,71.60
2018-05-10T19:08:57.449Z,71.60
2018-05-10T19:11:24.897Z,71.40
2018-05-10T19:13:52.347Z,70.70
2018-05-10T19:16:20.659Z,70.20
2018-05-10T19:18:48.095Z,70.10
2018-05-10T19:21:15.650Z,69.50
2018-05-10T19:23:43.098Z,69.80
2018-05-10T19:26:11.338Z,68.10
2018-05-10T19:28:38.799Z,68.00
2018-05-10T19:31:07.090Z,66.40
2018-05-10T19:33:34.538Z,66.20
2018-05-10T19:36:02.003Z,66.70
2018-05-10T19:38:29.461Z,66.90
2018-05-10T19:40:56.938Z,66.90
2018-05-10T19:43:25.137Z,67.20
2018-05-10T19:45:52.590Z,67.20
2018-05-10T19:48:20.054Z,67.40
2018-05-10T19:50:47.518Z,67.60
2018-05-10T19:53:14.996Z,67.70
2018-05-10T19:55:42.508Z,68.40
2018-05-10T19:58:09.958Z,67.40
2018-05-10T20:00:37.418Z,67.90
2018-05-10T20:03:04.899Z,67.10
2018-05-10T20:05:32.396Z,67.00
2018-05-10T20:07:59.821Z,67.30
2018-05-10T20:10:27.282Z,67.10
2018-05-10T20:12:55.585Z,67.20
2018-05-10T20:15:23.037Z,67.20
2018-05-10T20:17:50.510Z,67.30
2018-05-10T20:20:18.017Z,67.60
2018-05-10T20:22:45.475Z,67.20
2018-05-10T20:25:12.929Z,67.20
2018-05-10T20:27:40.384Z,67.40
2018-05-10T20:30:07.842Z,67.40
2018-05-10T20:32:35.303Z,67.50
2018-05-10T20:35:03.063Z,67.60
2018-05-10T20:37:30.497Z,67.60
2018-05-10T20:39:57.942Z,67.40
2018-05-10T20:42:26.170Z,67.50
2018-05-10T20:44:53.605Z,67.40
2018-05-10T20:47:21.090Z,67.90
2018-05-10T20:49:48.548Z,68.10
2018-05-10T20:52:16.061Z,68.00
2018-05-10T20:54:44.202Z,67.80
2018-05-10T20:57:11.643Z,67.70
2018-05-10T20:59:39.086Z,67.90
2018-05-10T21:02:06.537Z,68.10
2018-05-10T21:04:33.994Z,68.00
2018-05-10T21:07:01.445Z,68.40
2018-05-10T21:09:28.892Z,68.20
2018-05-10T21:11:56.349Z,68.30
2018-05-10T21:14:23.814Z,68.70
2018-05-10T21:16:51.257Z,68.50
2018-05-10T21:19:18.713Z,68.10
2018-05-10T21:21:46.173Z,68.20
2018-05-10T21:24:13.629Z,68.30
2018-05-10T21:26:41.092Z,68.50
2018-05-10T21:29:08.547Z,68.50
2018-05-10T21:31:36.005Z,68.40
2018-05-10T21:34:03.481Z,68.60
2018-05-10T21:36:30.920Z,68.50
2018-05-10T21:38:58.573Z,68.70
2018-05-10T21:41:26.040Z,68.80
2018-05-10T21:43:53.501Z,68.80
2018-05-10T21:46:20.982Z,68.70
2018-05-10T21:48:48.425Z,68.70
2018-05-10T21:51:15.870Z,68.60
2018-05-10T21:53:43.312Z,68.90
2018-05-10T21:56:10.763Z,69.20
2018-05-10T21:58:38.204Z,69.40
2018-05-10T22:01:05.677Z,69.80
2018-05-10T22:03:33.115Z,69.80
2018-05-10T22:06:01.857Z,70.30
2018-05-10T22:08:29.305Z,70.30
2018-05-10T22:10:56.753Z,70.50
2018-05-10T22:13:24.213Z,70.80
2018-05-10T22:15:51.670Z,71.00
2018-05-10T22:18:19.129Z,71.10
2018-05-10T22:20:46.574Z,71.30
2018-05-10T22:23:14.027Z,71.40
2018-05-10T22:25:41.461Z,71.80
2018-05-10T22:28:08.923Z,72.00
2018-05-10T22:36:06.869Z,72.80
2018-05-10T22:38:34.321Z,73.40
2018-05-10T22:41:01.847Z,73.70
2018-05-10T22:43:29.196Z,73.80
2018-05-10T22:45:56.697Z,74.10
2018-05-10T22:48:24.150Z,74.10
2018-05-10T22:50:51.590Z,74.40
2018-05-10T22:53:19.043Z,74.70
2018-05-10T22:55:46.484Z,74.70
2018-05-10T22:58:13.957Z,74.90
2018-05-10T23:00:41.407Z,75.00
2018-05-10T23:03:08.898Z,75.20
2018-05-10T23:05:37.109Z,75.30
2018-05-10T23:08:05.364Z,75.50
2018-05-10T23:10:32.796Z,75.40
2018-05-10T23:13:00.237Z,75.60
2018-05-10T23:15:27.683Z,75.60
2018-05-10T23:17:55.141Z,75.70
2018-05-10T23:20:22.577Z,75.90
2018-05-10T23:22:50.797Z,76.10
2018-05-10T23:25:18.287Z,76.10
2018-05-10T23:27:45.756Z,76.20
2018-05-10T23:30:13.269Z,76.20
2018-05-10T23:32:40.808Z,76.20
2018-05-10T23:35:08.237Z,76.90
2018-05-10T23:37:36.449Z,76.20
2018-05-10T23:40:03.903Z,76.10
2018-05-10T23:42:31.355Z,76.10
2018-05-10T23:44:58.788Z,76.20
2018-05-10T23:47:26.266Z,76.10
2018-05-10T23:49:53.730Z,76.10
2018-05-10T23:52:21.193Z,76.20
2018-05-10T23:54:48.643Z,76.20
2018-05-10T23:57:16.096Z,76.30
2018-05-10T23:59:43.558Z,76.40
